KRDM/RDM METAR and TAF weather

Enter ICAO airport designator
Station Type Date Time Source
KRDM METAR 2019/09/20 19:56 UTC NOAA

KRDM 201956Z 04005KT 10SM OVC046 16/08 A3009 RMK AO2 SLP184 T01610083


Station Type Date Time Source
KRDM Decoded METAR 2019/09/20 19:56 UTC NOAA

REDMOND ROBERTS FIELD, OR, United States (KRDM) 44-15N 121-08W
Sep 20, 2019 - 03:56 PM EDT / 2019.09.20 1956 UTC
Wind: from the NE (040 degrees) at 6 MPH (5 KT):0
Visibility: 10 mile(s):0
Sky conditions: overcast
Temperature: 61.0 F (16.1 C)
Dew Point: 46.9 F (8.3 C)
Relative Humidity: 59%
Pressure (altimeter): 30.09 in. Hg (1018 hPa)
ob: KRDM 201956Z 04005KT 10SM OVC046 16/08 A3009 RMK AO2 SLP184 T01610083
cycle: 20

Station Type Date Time Source
KRDM TAF 2019/09/20 18:24 UTC NOAA

TAF KRDM 201720Z 2018/2118 33009KT P6SM BKN050 BKN250
TEMPO 2018/2020 BKN035
FM210400 VRB04KT P6SM FEW050 SCT250
FM211730 31007KT P6SM SCT250

Example: see airport list